sensor_id;sensor_type;location;lat;lon;timestamp;pressure;altitude;pressure_sealevel;temperature
15360;BMP280;7779;49.596;11.070;2023-07-13T00:01:51;98017.66;;;25.30
15360;BMP280;7779;49.596;11.070;2023-07-13T00:04:21;98022.75;;;25.31
15360;BMP280;7779;49.596;11.070;2023-07-13T00:06:48;98014.22;;;25.31
15360;BMP280;7779;49.596;11.070;2023-07-13T00:09:17;98006.53;;;25.32
15360;BMP280;7779;49.596;11.070;2023-07-13T00:11:45;98009.09;;;25.32
15360;BMP280;7779;49.596;11.070;2023-07-13T00:14:13;98000.56;;;25.32
15360;BMP280;7779;49.596;11.070;2023-07-13T00:16:41;97996.28;;;25.31
15360;BMP280;7779;49.596;11.070;2023-07-13T00:19:12;97987.75;;;25.29
15360;BMP280;7779;49.596;11.070;2023-07-13T00:21:40;97988.63;;;25.26
15360;BMP280;7779;49.596;11.070;2023-07-13T00:24:08;97986.91;;;25.22
15360;BMP280;7779;49.596;11.070;2023-07-13T00:26:35;97975.88;;;25.17
15360;BMP280;7779;49.596;11.070;2023-07-13T00:29:01;97982.72;;;25.14
15360;BMP280;7779;49.596;11.070;2023-07-13T00:31:28;97983.59;;;25.10
15360;BMP280;7779;49.596;11.070;2023-07-13T00:33:54;97987.03;;;25.06
15360;BMP280;7779;49.596;11.070;2023-07-13T00:36:20;97989.63;;;25.02
15360;BMP280;7779;49.596;11.070;2023-07-13T00:38:46;97989.63;;;24.99
15360;BMP280;7779;49.596;11.070;2023-07-13T00:41:13;97992.25;;;24.94
15360;BMP280;7779;49.596;11.070;2023-07-13T00:43:40;97992.22;;;24.91
15360;BMP280;7779;49.596;11.070;2023-07-13T00:46:35;97991.38;;;24.86
15360;BMP280;7779;49.596;11.070;2023-07-13T00:49:06;97999.94;;;24.82
15360;BMP280;7779;49.596;11.070;2023-07-13T00:51:44;98000.81;;;24.78
15360;BMP280;7779;49.596;11.070;2023-07-13T00:54:15;98004.25;;;24.74
15360;BMP280;7779;49.596;11.070;2023-07-13T00:56:45;98016.22;;;24.71
15360;BMP280;7779;49.596;11.070;2023-07-13T00:59:13;98029.91;;;24.69
15360;BMP280;7779;49.596;11.070;2023-07-13T01:01:40;98033.31;;;24.65
15360;BMP280;7779;49.596;11.070;2023-07-13T01:04:06;98035.91;;;24.60
15360;BMP280;7779;49.596;11.070;2023-07-13T01:06:39;98024.81;;;24.57
15360;BMP280;7779;49.596;11.070;2023-07-13T01:09:08;98022.28;;;24.52
15360;BMP280;7779;49.596;11.070;2023-07-13T01:11:34;98021.44;;;24.47
15360;BMP280;7779;49.596;11.070;2023-07-13T01:14:01;98017.19;;;24.42
15360;BMP280;7779;49.596;11.070;2023-07-13T01:16:33;98023.19;;;24.38
15360;BMP280;7779;49.596;11.070;2023-07-13T01:19:00;98025.75;;;24.33
15360;BMP280;7779;49.596;11.070;2023-07-13T01:21:32;98009.56;;;24.27
15360;BMP280;7779;49.596;11.070;2023-07-13T01:23:59;97999.28;;;24.21
15360;BMP280;7779;49.596;11.070;2023-07-13T01:26:25;98006.09;;;24.16
15360;BMP280;7779;49.596;11.070;2023-07-13T01:28:51;98006.97;;;24.12
15360;BMP280;7779;49.596;11.070;2023-07-13T01:31:17;98010.41;;;24.07
15360;BMP280;7779;49.596;11.070;2023-07-13T01:33:43;98024.91;;;24.03
15360;BMP280;7779;49.596;11.070;2023-07-13T01:36:11;98014.69;;;23.97
15360;BMP280;7779;49.596;11.070;2023-07-13T01:38:37;98016.38;;;23.92
15360;BMP280;7779;49.596;11.070;2023-07-13T01:41:04;98018.97;;;23.88
15360;BMP280;7779;49.596;11.070;2023-07-13T01:43:30;98024.06;;;23.84
15360;BMP280;7779;49.596;11.070;2023-07-13T01:45:55;98025.78;;;23.79
15360;BMP280;7779;49.596;11.070;2023-07-13T01:48:21;98024.06;;;23.76
15360;BMP280;7779;49.596;11.070;2023-07-13T01:50:48;98021.53;;;23.72
15360;BMP280;7779;49.596;11.070;2023-07-13T01:53:14;98021.53;;;23.69
15360;BMP280;7779;49.596;11.070;2023-07-13T01:55:40;98020.66;;;23.64
15360;BMP280;7779;49.596;11.070;2023-07-13T01:58:06;98016.38;;;23.58
15360;BMP280;7779;49.596;11.070;2023-07-13T02:00:32;98023.16;;;23.55
15360;BMP280;7779;49.596;11.070;2023-07-13T02:02:58;98015.50;;;23.51
15360;BMP280;7779;49.596;11.070;2023-07-13T02:05:24;98014.66;;;23.47
15360;BMP280;7779;49.596;11.070;2023-07-13T02:07:50;98018.91;;;23.42
15360;BMP280;7779;49.596;11.070;2023-07-13T02:10:17;98012.97;;;23.37
15360;BMP280;7779;49.596;11.070;2023-07-13T02:12:43;98014.66;;;23.32
15360;BMP280;7779;49.596;11.070;2023-07-13T02:15:10;98026.56;;;23.27
15360;BMP280;7779;49.596;11.070;2023-07-13T02:17:36;98029.13;;;23.21
15360;BMP280;7779;49.596;11.070;2023-07-13T02:20:03;98024.00;;;23.15
15360;BMP280;7779;49.596;11.070;2023-07-13T02:22:30;98027.38;;;23.12
15360;BMP280;7779;49.596;11.070;2023-07-13T02:24:56;98025.66;;;23.06
15360;BMP280;7779;49.596;11.070;2023-07-13T02:27:22;98032.47;;;23.01
15360;BMP280;7779;49.596;11.070;2023-07-13T02:29:49;98033.31;;;22.96
15360;BMP280;7779;49.596;11.070;2023-07-13T02:32:17;98027.31;;;22.89
15360;BMP280;7779;49.596;11.070;2023-07-13T02:34:44;98029.81;;;22.85
15360;BMP280;7779;49.596;11.070;2023-07-13T02:37:09;98026.41;;;22.80
15360;BMP280;7779;49.596;11.070;2023-07-13T02:39:35;98031.47;;;22.74
15360;BMP280;7779;49.596;11.070;2023-07-13T02:42:03;98032.31;;;22.67
15360;BMP280;7779;49.596;11.070;2023-07-13T02:44:29;98041.63;;;22.61
15360;BMP280;7779;49.596;11.070;2023-07-13T02:46:55;98033.97;;;22.55
15360;BMP280;7779;49.596;11.070;2023-07-13T02:49:21;98041.56;;;22.50
15360;BMP280;7779;49.596;11.070;2023-07-13T02:51:47;98041.56;;;22.44
15360;BMP280;7779;49.596;11.070;2023-07-13T02:54:13;98055.16;;;22.40
15360;BMP280;7779;49.596;11.070;2023-07-13T02:56:41;98053.41;;;22.34
15360;BMP280;7779;49.596;11.070;2023-07-13T02:59:07;98060.16;;;22.29
15360;BMP280;7779;49.596;11.070;2023-07-13T03:01:32;98067.84;;;22.26
15360;BMP280;7779;49.596;11.070;2023-07-13T03:04:01;98075.44;;;22.20
15360;BMP280;7779;49.596;11.070;2023-07-13T03:06:28;98065.16;;;22.14
15360;BMP280;7779;49.596;11.070;2023-07-13T03:08:56;98067.66;;;22.08
15360;BMP280;7779;49.596;11.070;2023-07-13T03:11:23;98059.94;;;22.02
15360;BMP280;7779;49.596;11.070;2023-07-13T03:13:58;98058.22;;;21.95
15360;BMP280;7779;49.596;11.070;2023-07-13T03:16:25;98071.78;;;21.90
15360;BMP280;7779;49.596;11.070;2023-07-13T03:18:52;98082.78;;;21.86
15360;BMP280;7779;49.596;11.070;2023-07-13T03:21:18;98092.09;;;21.82
15360;BMP280;7779;49.596;11.070;2023-07-13T03:23:44;98089.50;;;21.76
15360;BMP280;7779;49.596;11.070;2023-07-13T03:26:15;98087.75;;;21.71
15360;BMP280;7779;49.596;11.070;2023-07-13T03:28:43;98090.25;;;21.65
15360;BMP280;7779;49.596;11.070;2023-07-13T03:31:20;98093.59;;;21.59
15360;BMP280;7779;49.596;11.070;2023-07-13T03:33:48;98101.19;;;21.55
15360;BMP280;7779;49.596;11.070;2023-07-13T03:36:24;98107.97;;;21.50
15360;BMP280;7779;49.596;11.070;2023-07-13T03:39:00;98111.31;;;21.45
15360;BMP280;7779;49.596;11.070;2023-07-13T03:41:38;98124.81;;;21.39
15360;BMP280;7779;49.596;11.070;2023-07-13T03:44:05;98122.19;;;21.35
15360;BMP280;7779;49.596;11.070;2023-07-13T03:46:31;98130.66;;;21.31
15360;BMP280;7779;49.596;11.070;2023-07-13T03:48:57;98128.06;;;21.29
15360;BMP280;7779;49.596;11.070;2023-07-13T03:51:23;98131.44;;;21.25
15360;BMP280;7779;49.596;11.070;2023-07-13T03:53:50;98147.53;;;21.23
15360;BMP280;7779;49.596;11.070;2023-07-13T03:56:19;98135.63;;;21.22
15360;BMP280;7779;49.596;11.070;2023-07-13T03:58:47;98135.63;;;21.20
15360;BMP280;7779;49.596;11.070;2023-07-13T04:01:19;98139.88;;;21.20
15360;BMP280;7779;49.596;11.070;2023-07-13T04:03:46;98140.72;;;21.20
15360;BMP280;7779;49.596;11.070;2023-07-13T04:06:20;98146.66;;;21.21
15360;BMP280;7779;49.596;11.070;2023-07-13T04:08:49;98150.06;;;21.23
15360;BMP280;7779;49.596;11.070;2023-07-13T04:11:18;98154.34;;;21.24
15360;BMP280;7779;49.596;11.070;2023-07-13T04:13:44;98154.41;;;21.27
15360;BMP280;7779;49.596;11.070;2023-07-13T04:16:12;98160.38;;;21.29
15360;BMP280;7779;49.596;11.070;2023-07-13T04:18:37;98159.56;;;21.33
15360;BMP280;7779;49.596;11.070;2023-07-13T04:21:03;98165.53;;;21.36
15360;BMP280;7779;49.596;11.070;2023-07-13T04:23:29;98168.16;;;21.41
15360;BMP280;7779;49.596;11.070;2023-07-13T04:25:55;98158.00;;;21.44
15360;BMP280;7779;49.596;11.070;2023-07-13T04:28:27;98155.50;;;21.50
15360;BMP280;7779;49.596;11.070;2023-07-13T04:30:53;98158.13;;;21.53
15360;BMP280;7779;49.596;11.070;2023-07-13T04:33:20;98158.16;;;21.56
15360;BMP280;7779;49.596;11.070;2023-07-13T04:35:49;98146.31;;;21.59
15360;BMP280;7779;49.596;11.070;2023-07-13T04:38:28;98153.13;;;21.66
15360;BMP280;7779;49.596;11.070;2023-07-13T04:40:57;98147.31;;;21.76
15360;BMP280;7779;49.596;11.070;2023-07-13T04:43:24;98159.28;;;21.86
15360;BMP280;7779;49.596;11.070;2023-07-13T04:45:51;98167.00;;;21.93
15360;BMP280;7779;49.596;11.070;2023-07-13T04:48:18;98162.00;;;22.02
15360;BMP280;7779;49.596;11.070;2023-07-13T04:50:46;98168.03;;;22.10
15360;BMP280;7779;49.596;11.070;2023-07-13T04:53:12;98172.38;;;22.17
15360;BMP280;7779;49.596;11.070;2023-07-13T04:55:38;98176.66;;;22.24
15360;BMP280;7779;49.596;11.070;2023-07-13T04:58:04;98169.09;;;22.30
15360;BMP280;7779;49.596;11.070;2023-07-13T05:00:30;98181.06;;;22.36
15360;BMP280;7779;49.596;11.070;2023-07-13T05:02:58;98187.06;;;22.44
15360;BMP280;7779;49.596;11.070;2023-07-13T05:05:26;98179.44;;;22.50
15360;BMP280;7779;49.596;11.070;2023-07-13T05:07:53;98192.25;;;22.55
15360;BMP280;7779;49.596;11.070;2023-07-13T05:10:19;98187.16;;;22.59
15360;BMP280;7779;49.596;11.070;2023-07-13T05:12:45;98185.50;;;22.63
15360;BMP280;7779;49.596;11.070;2023-07-13T05:15:11;98192.34;;;22.68
15360;BMP280;7779;49.596;11.070;2023-07-13T05:17:37;98191.53;;;22.73
15360;BMP280;7779;49.596;11.070;2023-07-13T05:20:06;98196.69;;;22.81
15360;BMP280;7779;49.596;11.070;2023-07-13T05:22:32;98195.06;;;22.92
15360;BMP280;7779;49.596;11.070;2023-07-13T05:25:01;98194.31;;;23.03
15360;BMP280;7779;49.596;11.070;2023-07-13T05:27:27;98196.91;;;23.16
15360;BMP280;7779;49.596;11.070;2023-07-13T05:29:53;98191.03;;;23.31
15360;BMP280;7779;49.596;11.070;2023-07-13T05:32:19;98185.13;;;23.50
15360;BMP280;7779;49.596;11.070;2023-07-13T05:34:44;98189.47;;;23.73
15360;BMP280;7779;49.596;11.070;2023-07-13T05:37:10;98187.00;;;23.93
15360;BMP280;7779;49.596;11.070;2023-07-13T05:39:36;98187.00;;;24.16
15360;BMP280;7779;49.596;11.070;2023-07-13T05:42:02;98187.06;;;24.38
15360;BMP280;7779;49.596;11.070;2023-07-13T05:44:28;98191.31;;;24.60
15360;BMP280;7779;49.596;11.070;2023-07-13T05:46:54;98193.84;;;24.80
15360;BMP280;7779;49.596;11.070;2023-07-13T05:49:22;98191.28;;;24.98
15360;BMP280;7779;49.596;11.070;2023-07-13T05:51:49;98192.09;;;25.13
15360;BMP280;7779;49.596;11.070;2023-07-13T05:54:14;98187.75;;;25.27
15360;BMP280;7779;49.596;11.070;2023-07-13T05:56:40;98197.13;;;25.39
15360;BMP280;7779;49.596;11.070;2023-07-13T05:59:06;98203.03;;;25.51
15360;BMP280;7779;49.596;11.070;2023-07-13T06:01:32;98197.03;;;25.65
15360;BMP280;7779;49.596;11.070;2023-07-13T06:03:58;98207.22;;;25.80
15360;BMP280;7779;49.596;11.070;2023-07-13T06:06:24;98207.97;;;25.94
15360;BMP280;7779;49.596;11.070;2023-07-13T06:08:50;98212.22;;;26.05
15360;BMP280;7779;49.596;11.070;2023-07-13T06:11:23;98205.25;;;26.18
15360;BMP280;7779;49.596;11.070;2023-07-13T06:13:49;98203.53;;;26.23
15360;BMP280;7779;49.596;11.070;2023-07-13T06:16:16;98207.84;;;26.24
15360;BMP280;7779;49.596;11.070;2023-07-13T06:18:42;98210.41;;;26.25
15360;BMP280;7779;49.596;11.070;2023-07-13T06:21:10;98207.78;;;26.30
15360;BMP280;7779;49.596;11.070;2023-07-13T06:23:36;98201.72;;;26.39
15360;BMP280;7779;49.596;11.070;2023-07-13T06:26:04;98209.25;;;26.57
15360;BMP280;7779;49.596;11.070;2023-07-13T06:28:31;98208.25;;;26.76
15360;BMP280;7779;49.596;11.070;2023-07-13T06:30:58;98202.91;;;27.00
15360;BMP280;7779;49.596;11.070;2023-07-13T06:33:25;98199.97;;;27.29
15360;BMP280;7779;49.596;11.070;2023-07-13T06:35:51;98194.50;;;27.59
15360;BMP280;7779;49.596;11.070;2023-07-13T06:38:17;98200.13;;;27.88
15360;BMP280;7779;49.596;11.070;2023-07-13T06:40:43;98202.38;;;28.11
15360;BMP280;7779;49.596;11.070;2023-07-13T06:43:09;98210.69;;;28.28
15360;BMP280;7779;49.596;11.070;2023-07-13T06:45:45;98207.94;;;28.41
15360;BMP280;7779;49.596;11.070;2023-07-13T06:48:13;98206.16;;;28.45
15360;BMP280;7779;49.596;11.070;2023-07-13T06:50:40;98214.78;;;28.41
15360;BMP280;7779;49.596;11.070;2023-07-13T06:53:06;98212.28;;;28.36
15360;BMP280;7779;49.596;11.070;2023-07-13T06:55:32;98210.75;;;28.27
15360;BMP280;7779;49.596;11.070;2023-07-13T06:57:57;98215.19;;;28.16
15360;BMP280;7779;49.596;11.070;2023-07-13T07:00:23;98222.19;;;28.06
15360;BMP280;7779;49.596;11.070;2023-07-13T07:02:49;98223.97;;;28.01
15360;BMP280;7779;49.596;11.070;2023-07-13T07:05:15;98240.31;;;27.99
15360;BMP280;7779;49.596;11.070;2023-07-13T07:07:41;98237.75;;;27.97
15360;BMP280;7779;49.596;11.070;2023-07-13T07:10:07;98224.81;;;28.02
15360;BMP280;7779;49.596;11.070;2023-07-13T07:12:33;98231.63;;;28.09
15360;BMP280;7779;49.596;11.070;2023-07-13T07:14:59;98232.34;;;28.18
15360;BMP280;7779;49.596;11.070;2023-07-13T07:17:24;98237.38;;;28.24
15360;BMP280;7779;49.596;11.070;2023-07-13T07:19:52;98238.19;;;28.28
15360;BMP280;7779;49.596;11.070;2023-07-13T07:22:20;98238.97;;;28.34
15360;BMP280;7779;49.596;11.070;2023-07-13T07:24:46;98236.34;;;28.35
15360;BMP280;7779;49.596;11.070;2023-07-13T07:27:12;98236.34;;;28.37
15360;BMP280;7779;49.596;11.070;2023-07-13T07:29:38;98238.03;;;28.39
15360;BMP280;7779;49.596;11.070;2023-07-13T07:32:04;98240.53;;;28.44
15360;BMP280;7779;49.596;11.070;2023-07-13T07:34:31;98254.25;;;28.44
15360;BMP280;7779;49.596;11.070;2023-07-13T07:37:00;98251.66;;;28.46
15360;BMP280;7779;49.596;11.070;2023-07-13T07:39:29;98247.31;;;28.48
15360;BMP280;7779;49.596;11.070;2023-07-13T07:41:55;98249.88;;;28.49
15360;BMP280;7779;49.596;11.070;2023-07-13T07:44:23;98249.88;;;28.49
15360;BMP280;7779;49.596;11.070;2023-07-13T07:46:49;98257.56;;;28.54
15360;BMP280;7779;49.596;11.070;2023-07-13T07:49:15;98260.91;;;28.59
15360;BMP280;7779;49.596;11.070;2023-07-13T07:51:41;98265.13;;;28.66
15360;BMP280;7779;49.596;11.070;2023-07-13T07:54:07;98262.41;;;28.74
15360;BMP280;7779;49.596;11.070;2023-07-13T07:56:33;98265.59;;;28.88
15360;BMP280;7779;49.596;11.070;2023-07-13T07:58:59;98262.72;;;29.05
15360;BMP280;7779;49.596;11.070;2023-07-13T08:01:25;98265.91;;;29.20
15360;BMP280;7779;49.596;11.070;2023-07-13T08:03:50;98273.50;;;29.29
15360;BMP280;7779;49.596;11.070;2023-07-13T08:06:16;98279.44;;;29.34
15360;BMP280;7779;49.596;11.070;2023-07-13T08:08:45;98281.97;;;29.37
15360;BMP280;7779;49.596;11.070;2023-07-13T08:11:11;98286.19;;;29.39
15360;BMP280;7779;49.596;11.070;2023-07-13T08:13:37;98278.56;;;29.35
15360;BMP280;7779;49.596;11.070;2023-07-13T08:16:05;98280.31;;;29.33
15360;BMP280;7779;49.596;11.070;2023-07-13T08:18:32;98286.38;;;29.30
15360;BMP280;7779;49.596;11.070;2023-07-13T08:20:57;98287.28;;;29.28
15360;BMP280;7779;49.596;11.070;2023-07-13T08:23:25;98285.56;;;29.28
15360;BMP280;7779;49.596;11.070;2023-07-13T08:25:55;98290.72;;;29.28
15360;BMP280;7779;49.596;11.070;2023-07-13T08:28:21;98282.13;;;29.28
15360;BMP280;7779;49.596;11.070;2023-07-13T08:30:47;98288.97;;;29.29
15360;BMP280;7779;49.596;11.070;2023-07-13T08:33:18;98287.22;;;29.31
15360;BMP280;7779;49.596;11.070;2023-07-13T08:35:50;98285.41;;;29.36
15360;BMP280;7779;49.596;11.070;2023-07-13T08:38:18;98286.31;;;29.35
15360;BMP280;7779;49.596;11.070;2023-07-13T08:40:53;98285.50;;;29.31
15360;BMP280;7779;49.596;11.070;2023-07-13T08:43:30;98286.47;;;29.26
15360;BMP280;7779;49.596;11.070;2023-07-13T08:46:19;98294.22;;;29.26
15360;BMP280;7779;49.596;11.070;2023-07-13T08:48:56;98291.56;;;29.29
15360;BMP280;7779;49.596;11.070;2023-07-13T08:51:41;98295.00;;;29.29
15360;BMP280;7779;49.596;11.070;2023-07-13T08:54:38;98288.22;;;29.24
15360;BMP280;7779;49.596;11.070;2023-07-13T08:57:19;98276.19;;;29.23
15360;BMP280;7779;49.596;11.070;2023-07-13T08:59:45;98292.53;;;29.22
15360;BMP280;7779;49.596;11.070;2023-07-13T09:02:28;98288.25;;;29.22
15360;BMP280;7779;49.596;11.070;2023-07-13T09:05:18;98297.81;;;29.14
15360;BMP280;7779;49.596;11.070;2023-07-13T09:08:03;98302.25;;;29.07
15360;BMP280;7779;49.596;11.070;2023-07-13T09:14:47;98293.81;;;28.99
15360;BMP280;7779;49.596;11.070;2023-07-13T09:17:32;98293.72;;;29.02
15360;BMP280;7779;49.596;11.070;2023-07-13T09:20:31;98300.50;;;29.09
15360;BMP280;7779;49.596;11.070;2023-07-13T09:23:05;98300.38;;;29.17
15360;BMP280;7779;49.596;11.070;2023-07-13T09:25:34;98305.38;;;29.26
15360;BMP280;7779;49.596;11.070;2023-07-13T09:28:45;98305.25;;;29.32
15360;BMP280;7779;49.596;11.070;2023-07-13T09:31:19;98300.91;;;29.34
15360;BMP280;7779;49.596;11.070;2023-07-13T09:33:48;98301.81;;;29.33
15360;BMP280;7779;49.596;11.070;2023-07-13T09:36:31;98303.56;;;29.33
15360;BMP280;7779;49.596;11.070;2023-07-13T09:39:30;98302.81;;;29.25
15360;BMP280;7779;49.596;11.070;2023-07-13T09:42:16;98297.78;;;29.19
15360;BMP280;7779;49.596;11.070;2023-07-13T09:45:01;98304.69;;;29.17
15360;BMP280;7779;49.596;11.070;2023-07-13T09:47:38;98301.25;;;29.15
15360;BMP280;7779;49.596;11.070;2023-07-13T09:50:14;98306.50;;;29.09
15360;BMP280;7779;49.596;11.070;2023-07-13T09:52:47;98309.13;;;29.08
15360;BMP280;7779;49.596;11.070;2023-07-13T09:55:34;98304.72;;;29.12
15360;BMP280;7779;49.596;11.070;2023-07-13T09:58:24;98304.69;;;29.17
15360;BMP280;7779;49.596;11.070;2023-07-13T10:01:00;98297.78;;;29.16
15360;BMP280;7779;49.596;11.070;2023-07-13T10:03:35;98294.41;;;29.11
15360;BMP280;7779;49.596;11.070;2023-07-13T10:06:17;98303.97;;;29.08
15360;BMP280;7779;49.596;11.070;2023-07-13T10:08:48;98319.44;;;29.08
15360;BMP280;7779;49.596;11.070;2023-07-13T10:11:20;98313.41;;;29.07
15360;BMP280;7779;49.596;11.070;2023-07-13T10:13:54;98306.56;;;29.06
15360;BMP280;7779;49.596;11.070;2023-07-13T10:16:23;98299.69;;;29.05
15360;BMP280;7779;49.596;11.070;2023-07-13T10:18:55;98299.66;;;29.08
15360;BMP280;7779;49.596;11.070;2023-07-13T10:21:36;98294.38;;;29.14
15360;BMP280;7779;49.596;11.070;2023-07-13T10:24:14;98293.28;;;29.28
15360;BMP280;7779;49.596;11.070;2023-07-13T10:26:52;98304.97;;;29.47
15360;BMP280;7779;49.596;11.070;2023-07-13T10:29:22;98289.19;;;29.63
15360;BMP280;7779;49.596;11.070;2023-07-13T10:31:49;98305.34;;;29.74
15360;BMP280;7779;49.596;11.070;2023-07-13T10:34:15;98295.75;;;29.79
15360;BMP280;7779;49.596;11.070;2023-07-13T10:36:46;98295.75;;;29.79
15360;BMP280;7779;49.596;11.070;2023-07-13T10:39:28;98297.50;;;29.79
15360;BMP280;7779;49.596;11.070;2023-07-13T10:42:04;98301.00;;;29.76
15360;BMP280;7779;49.596;11.070;2023-07-13T10:44:33;98305.28;;;29.77
15360;BMP280;7779;49.596;11.070;2023-07-13T10:47:11;98300.13;;;29.77
15360;BMP280;7779;49.596;11.070;2023-07-13T10:49:41;98301.81;;;29.78
15360;BMP280;7779;49.596;11.070;2023-07-13T10:52:47;98293.94;;;29.84
15360;BMP280;7779;49.596;11.070;2023-07-13T10:55:36;98308.56;;;29.85
15360;BMP280;7779;49.596;11.070;2023-07-13T10:58:23;98300.00;;;29.83
15360;BMP280;7779;49.596;11.070;2023-07-13T11:01:17;98312.03;;;29.84
15360;BMP280;7779;49.596;11.070;2023-07-13T11:03:50;98305.03;;;29.89
15360;BMP280;7779;49.596;11.070;2023-07-13T11:06:36;98306.63;;;29.96
15360;BMP280;7779;49.596;11.070;2023-07-13T11:12:25;98303.13;;;29.98
15360;BMP280;7779;49.596;11.070;2023-07-13T11:17:34;98287.41;;;30.09
15360;BMP280;7779;49.596;11.070;2023-07-13T11:22:48;98292.13;;;30.30
15360;BMP280;7779;49.596;11.070;2023-07-13T11:28:03;98284.50;;;30.61
15360;BMP280;7779;49.596;11.070;2023-07-13T11:36:30;98281.88;;;30.99
15360;BMP280;7779;49.596;11.070;2023-07-13T11:39:10;98281.78;;;31.02
15360;BMP280;7779;49.596;11.070;2023-07-13T11:42:02;98287.00;;;31.00
15360;BMP280;7779;49.596;11.070;2023-07-13T11:44:32;98282.66;;;31.02
15360;BMP280;7779;49.596;11.070;2023-07-13T11:47:07;98285.09;;;31.07
15360;BMP280;7779;49.596;11.070;2023-07-13T11:49:44;98279.75;;;31.12
15360;BMP280;7779;49.596;11.070;2023-07-13T11:52:16;98279.63;;;31.18
15360;BMP280;7779;49.596;11.070;2023-07-13T11:54:55;98274.22;;;31.27
15360;BMP280;7779;49.596;11.070;2023-07-13T11:57:27;98277.50;;;31.32
15360;BMP280;7779;49.596;11.070;2023-07-13T11:59:55;98269.66;;;31.37
15360;BMP280;7779;49.596;11.070;2023-07-13T12:02:36;98279.06;;;31.39
15360;BMP280;7779;49.596;11.070;2023-07-13T12:05:05;98278.25;;;31.39
15360;BMP280;7779;49.596;11.070;2023-07-13T12:07:33;98277.47;;;31.35
15360;BMP280;7779;49.596;11.070;2023-07-13T12:12:36;98277.44;;;31.37
15360;BMP280;7779;49.596;11.070;2023-07-13T12:15:07;98273.91;;;31.39
15360;BMP280;7779;49.596;11.070;2023-07-13T12:17:35;98272.16;;;31.40
15360;BMP280;7779;49.596;11.070;2023-07-13T12:20:11;98270.34;;;31.43
15360;BMP280;7779;49.596;11.070;2023-07-13T12:22:45;98277.03;;;31.50
15360;BMP280;7779;49.596;11.070;2023-07-13T12:25:12;98270.88;;;31.54
15360;BMP280;7779;49.596;11.070;2023-07-13T12:27:38;98266.41;;;31.60
15360;BMP280;7779;49.596;11.070;2023-07-13T12:33:12;98267.25;;;31.61
15360;BMP280;7779;49.596;11.070;2023-07-13T12:35:47;98273.41;;;31.57
15360;BMP280;7779;49.596;11.070;2023-07-13T12:38:16;98275.19;;;31.55
15360;BMP280;7779;49.596;11.070;2023-07-13T12:40:43;98273.53;;;31.52
15360;BMP280;7779;49.596;11.070;2023-07-13T12:43:14;98278.75;;;31.51
15360;BMP280;7779;49.596;11.070;2023-07-13T12:46:01;98279.59;;;31.51
15360;BMP280;7779;49.596;11.070;2023-07-13T12:48:27;98275.25;;;31.52
15360;BMP280;7779;49.596;11.070;2023-07-13T12:50:55;98284.75;;;31.53
15360;BMP280;7779;49.596;11.070;2023-07-13T12:53:30;98277.81;;;31.53
15360;BMP280;7779;49.596;11.070;2023-07-13T12:56:02;98281.22;;;31.55
15360;BMP280;7779;49.596;11.070;2023-07-13T12:58:37;98276.00;;;31.57
15360;BMP280;7779;49.596;11.070;2023-07-13T13:01:05;98269.00;;;31.60
15360;BMP280;7779;49.596;11.070;2023-07-13T13:03:38;98274.03;;;31.65
15360;BMP280;7779;49.596;11.070;2023-07-13T13:08:50;98269.06;;;31.57
15360;BMP280;7779;49.596;11.070;2023-07-13T13:11:18;98266.47;;;31.57
15360;BMP280;7779;49.596;11.070;2023-07-13T13:13:45;98260.38;;;31.60
15360;BMP280;7779;49.596;11.070;2023-07-13T13:18:44;98260.53;;;31.54
15360;BMP280;7779;49.596;11.070;2023-07-13T13:21:11;98264.13;;;31.49
15360;BMP280;7779;49.596;11.070;2023-07-13T13:23:37;98261.63;;;31.47
15360;BMP280;7779;49.596;11.070;2023-07-13T13:26:10;98257.13;;;31.52
15360;BMP280;7779;49.596;11.070;2023-07-13T13:28:36;98252.84;;;31.52
15360;BMP280;7779;49.596;11.070;2023-07-13T13:31:02;98250.13;;;31.55
15360;BMP280;7779;49.596;11.070;2023-07-13T13:33:27;98264.84;;;31.55
15360;BMP280;7779;49.596;11.070;2023-07-13T13:35:53;98267.56;;;31.51
15360;BMP280;7779;49.596;11.070;2023-07-13T13:38:28;98261.75;;;31.41
15360;BMP280;7779;49.596;11.070;2023-07-13T13:40:54;98259.44;;;31.31
15360;BMP280;7779;49.596;11.070;2023-07-13T13:43:26;98264.91;;;31.20
15360;BMP280;7779;49.596;11.070;2023-07-13T13:45:55;98262.63;;;31.09
15360;BMP280;7779;49.596;11.070;2023-07-13T13:48:31;98269.75;;;31.01
15360;BMP280;7779;49.596;11.070;2023-07-13T13:50:59;98255.09;;;31.00
15360;BMP280;7779;49.596;11.070;2023-07-13T13:53:26;98257.66;;;31.00
15360;BMP280;7779;49.596;11.070;2023-07-13T13:55:52;98254.28;;;30.98
15360;BMP280;7779;49.596;11.070;2023-07-13T13:58:19;98252.66;;;30.94
15360;BMP280;7779;49.596;11.070;2023-07-13T14:00:47;98253.66;;;30.88
15360;BMP280;7779;49.596;11.070;2023-07-13T14:03:20;98255.50;;;30.83
15360;BMP280;7779;49.596;11.070;2023-07-13T14:05:48;98258.19;;;30.79
15360;BMP280;7779;49.596;11.070;2023-07-13T14:08:20;98260.03;;;30.74
15360;BMP280;7779;49.596;11.070;2023-07-13T14:10:51;98263.69;;;30.66
15360;BMP280;7779;49.596;11.070;2023-07-13T14:13:26;98257.81;;;30.59
15360;BMP280;7779;49.596;11.070;2023-07-13T14:15:54;98265.69;;;30.53
15360;BMP280;7779;49.596;11.070;2023-07-13T14:18:20;98261.50;;;30.49
15360;BMP280;7779;49.596;11.070;2023-07-13T14:20:48;98262.47;;;30.45
15360;BMP280;7779;49.596;11.070;2023-07-13T14:23:15;98259.88;;;30.45
15360;BMP280;7779;49.596;11.070;2023-07-13T14:25:42;98274.44;;;30.48
15360;BMP280;7779;49.596;11.070;2023-07-13T14:28:23;98264.84;;;30.53
15360;BMP280;7779;49.596;11.070;2023-07-13T14:30:50;98269.00;;;30.60
15360;BMP280;7779;49.596;11.070;2023-07-13T14:33:15;98271.50;;;30.64
15360;BMP280;7779;49.596;11.070;2023-07-13T14:35:41;98263.59;;;30.70
15360;BMP280;7779;49.596;11.070;2023-07-13T14:38:16;98264.22;;;30.79
15360;BMP280;7779;49.596;11.070;2023-07-13T14:40:42;98269.22;;;30.87
15360;BMP280;7779;49.596;11.070;2023-07-13T14:43:11;98268.34;;;30.88
15360;BMP280;7779;49.596;11.070;2023-07-13T14:45:46;98265.75;;;30.88
15360;BMP280;7779;49.596;11.070;2023-07-13T14:48:19;98268.25;;;30.91
15360;BMP280;7779;49.596;11.070;2023-07-13T14:50:45;98250.00;;;30.97
15360;BMP280;7779;49.596;11.070;2023-07-13T14:53:13;98248.09;;;31.03
15360;BMP280;7779;49.596;11.070;2023-07-13T14:55:40;98253.09;;;31.09
15360;BMP280;7779;49.596;11.070;2023-07-13T14:58:06;98259.06;;;31.12